Austerlitz, NY (12017)

3:25 AM EST on March 05, 2015 (GMT -0500)
chatham | Change Station
CLOSE
Current Station
Personal Weather Station
Location: Spencertown, NY
Elevation: 1017 ft
Nearby Weather Stations

Elev 1017 ft 42.32 °N, 73.52 °W | Updated 5 seconds ago

Overcast
Overcast
27.2 °F
Feels Like 27 °F
N
1.0
Wind Variable Wind from ESE
Gusts 0.0 mph

Today
High -- | Low -- °F
--% Chance of Precip.
Yesterday
High -- | Low -- °F
Precip. -- in
6:23 AM 5:48 PM
Full, 100% visible
Pressure 29.86 in
Visibility 9.0 miles
Clouds Mostly Cloudy 2300 ft
Mostly Cloudy 2900 ft
Mostly Cloudy 4000 ft
Windchill 27 °F
Dew Point 23 °F
Humidity 85%
Rainfall in
Snow Depth Not available.
UV 0 out of 12
Pollen .50 out of 12
Air Quality Not available.
Flu Activity Not available.
SPECI KPSF 050807Z AUTO 29009KT 9SM BKN023 BKN029 BKN040 M02/M07 A2986 RMK AO2 T10221067

More Conditions Fewer Conditions

Pressure 29.86 in
Visibility 9.0 miles
Clouds Mostly Cloudy 2300 ft
Mostly Cloudy 2900 ft
Mostly Cloudy 4000 ft
Windchill 27 °F
Dew Point 23 °F
Humidity 85%
Rainfall in
Snow Depth Not available.
UV 0 out of 12
Pollen .50 out of 12
Air Quality Not available.
Flu Activity Not available.
SPECI KPSF 050807Z AUTO 29009KT 9SM BKN023 BKN029 BKN040 M02/M07 A2986 RMK AO2 T10221067

More Conditions Fewer Conditions

10-Day Weather Forecast

Almanac

Astronomy

Mar. 05, 2015 Rise Set
Actual Time
Civil Twilight
Nautical Twilight
Astronomical Twilight
Moon
Length of Visible Light
Length of Day
Tomorrow will be .
, % of the Moon is Illuminated

Today's Extremes

State Highs State Lows

Community

WunderPhotos

Upload Photos

1,802,704 photos uploaded!

WunderBlogs® & News

Nearby

Air Quality

  Air Quality AQ Index Pollutant
Not available.

Snow Depth

Station Depth Elevation

Earthquake Activity

City Distance Mag. Time & Date
Minimum magnitude displayed is 2.5.

Coastal Water Temperatures

Place Temperature

Nearby Weather Stations